Time;durP1;ratioP1;P1;durP2;ratioP2;P2;SDS_P1;SDS_P2;PMS_P1;PMS_P2;Temp;Humidity;BMP_temperature;BMP_pressure;BME280_temperature;BME280_humidity;BME280_pressure;Samples;Min_cycle;Max_cycle;Signal;HPM_P1;HPM_P2
2023/09/09 00:01:17;;;;;;;2.70;2.50;;;22.00;99.90;;;;;;5019528;28;20191;-67
2023/09/09 00:03:45;;;;;;;2.58;2.40;;;21.90;99.90;;;;;;5030437;28;20201;-67
2023/09/09 00:06:13;;;;;;;2.28;2.00;;;21.90;99.90;;;;;;5025569;28;20239;-67
2023/09/09 00:08:42;;;;;;;2.30;2.10;;;21.90;99.90;;;;;;5031910;28;20199;-66
2023/09/09 00:11:10;;;;;;;2.50;2.30;;;21.90;99.90;;;;;;5028188;28;20187;-66
2023/09/09 00:13:37;;;;;;;2.83;2.63;;;22.00;99.90;;;;;;5024255;28;20686;-66
2023/09/09 00:16:04;;;;;;;2.30;2.20;;;22.00;99.90;;;;;;5014392;28;20206;-67
2023/09/09 00:18:32;;;;;;;2.90;2.60;;;22.00;99.90;;;;;;5023445;28;20360;-67
2023/09/09 00:21:00;;;;;;;2.88;2.67;;;21.90;99.90;;;;;;5028873;28;20199;-67
2023/09/09 00:23:27;;;;;;;2.75;2.55;;;21.90;99.90;;;;;;5024189;28;20202;-67
2023/09/09 00:25:56;;;;;;;2.80;2.60;;;21.80;99.90;;;;;;5029271;28;20222;-67
2023/09/09 00:28:23;;;;;;;2.80;2.60;;;21.80;99.90;;;;;;5025101;28;20198;-66
2023/09/09 00:30:50;;;;;;;2.88;2.58;;;21.80;99.90;;;;;;5030684;28;20203;-66
2023/09/09 00:33:18;;;;;;;3.20;2.90;;;21.80;99.90;;;;;;4981517;28;20262;-65
2023/09/09 00:35:45;;;;;;;2.72;2.53;;;21.80;99.90;;;;;;5009585;28;20215;-65
2023/09/09 00:38:13;;;;;;;2.90;2.58;;;21.80;99.90;;;;;;5023729;28;20257;-64
2023/09/09 00:40:44;;;;;;;2.97;2.78;;;21.70;99.90;;;;;;5011337;28;20265;-65
2023/09/09 00:43:13;;;;;;;3.17;2.60;;;21.70;99.90;;;;;;5015862;28;20275;-65
2023/09/09 00:45:40;;;;;;;2.92;2.38;;;21.70;99.90;;;;;;5018721;28;20195;-66
2023/09/09 00:48:08;;;;;;;2.63;2.42;;;21.70;99.90;;;;;;5011864;28;20199;-66
2023/09/09 00:50:35;;;;;;;2.38;2.20;;;21.70;99.90;;;;;;5030760;28;20198;-65
2023/09/09 00:53:03;;;;;;;2.60;2.40;;;21.60;99.90;;;;;;5018483;28;20713;-65
2023/09/09 00:55:30;;;;;;;2.88;2.55;;;21.70;99.90;;;;;;5005492;28;20215;-66
2023/09/09 00:57:57;;;;;;;2.15;2.05;;;21.70;99.90;;;;;;5014206;28;20199;-65
2023/09/09 01:00:26;;;;;;;2.35;2.15;;;21.60;99.90;;;;;;5010373;28;20253;-65
2023/09/09 01:02:53;;;;;;;2.38;2.17;;;21.60;99.90;;;;;;5014700;28;20218;-66
2023/09/09 01:05:20;;;;;;;2.33;2.17;;;21.60;99.90;;;;;;5029886;28;20245;-65
2023/09/09 01:07:50;;;;;;;2.35;2.15;;;21.50;99.90;;;;;;5019956;28;20578;-66
2023/09/09 01:10:18;;;;;;;2.08;1.98;;;21.50;99.90;;;;;;5007220;28;20206;-65
2023/09/09 01:12:45;;;;;;;2.60;2.40;;;21.50;99.90;;;;;;5014961;28;20613;-66
2023/09/09 01:15:13;;;;;;;2.72;2.53;;;21.50;99.90;;;;;;5026194;28;20202;-66
2023/09/09 01:17:43;;;;;;;2.50;2.30;;;21.40;99.90;;;;;;5023400;28;20204;-66
2023/09/09 01:20:14;;;;;;;2.85;2.60;;;21.40;99.90;;;;;;5027382;28;20206;-66
2023/09/09 01:22:44;;;;;;;3.20;2.25;;;21.40;99.90;;;;;;5020101;28;20302;-66
2023/09/09 01:25:12;;;;;;;2.33;2.20;;;21.40;99.90;;;;;;5029224;28;20252;-66
2023/09/09 01:27:40;;;;;;;2.30;2.20;;;21.40;99.90;;;;;;5001708;28;20293;-66
2023/09/09 01:30:09;;;;;;;2.97;2.53;;;21.40;99.90;;;;;;5030223;28;20198;-67
2023/09/09 01:32:36;;;;;;;2.10;2.00;;;21.40;99.90;;;;;;5020561;28;20618;-66
2023/09/09 01:35:06;;;;;;;2.22;1.83;;;21.40;99.90;;;;;;5029646;28;20657;-66
2023/09/09 01:37:34;;;;;;;2.15;1.98;;;21.40;99.90;;;;;;5004494;28;20203;-66
2023/09/09 01:40:11;;;;;;;2.05;1.95;;;21.40;99.90;;;;;;4997844;28;20223;-66
2023/09/09 01:42:40;;;;;;;2.13;2.03;;;21.40;99.90;;;;;;5018460;28;20265;-66
2023/09/09 01:45:09;;;;;;;3.60;2.72;;;21.40;99.90;;;;;;5009813;28;20563;-66
2023/09/09 01:47:36;;;;;;;2.38;1.90;;;21.40;99.90;;;;;;5009865;28;20669;-66
2023/09/09 01:50:03;;;;;;;2.00;1.90;;;21.30;99.90;;;;;;4992218;28;20253;-66
2023/09/09 01:52:30;;;;;;;2.50;2.30;;;21.30;99.90;;;;;;4998624;28;20536;-67
2023/09/09 01:54:57;;;;;;;2.05;1.85;;;21.30;99.90;;;;;;5010672;28;20219;-66
2023/09/09 01:57:26;;;;;;;2.28;2.10;;;21.30;99.90;;;;;;4999417;28;20187;-67
2023/09/09 01:59:54;;;;;;;2.10;1.90;;;21.30;99.90;;;;;;4999384;28;20255;-67
2023/09/09 02:02:21;;;;;;;2.42;2.20;;;21.30;99.90;;;;;;5026077;28;20294;-67
2023/09/09 02:04:48;;;;;;;2.20;2.00;;;21.20;99.90;;;;;;5006069;28;20784;-67
2023/09/09 02:07:15;;;;;;;2.42;2.22;;;21.20;99.90;;;;;;5020900;28;20223;-66
2023/09/09 02:09:42;;;;;;;2.05;1.95;;;21.20;99.90;;;;;;5018249;28;20203;-66
2023/09/09 02:12:09;;;;;;;1.90;1.80;;;21.20;99.90;;;;;;5017819;28;20199;-67
2023/09/09 02:14:38;;;;;;;1.98;1.88;;;21.20;99.90;;;;;;4999905;28;20222;-67
2023/09/09 02:17:05;;;;;;;2.20;2.00;;;21.20;99.90;;;;;;5021005;28;20209;-68
2023/09/09 02:19:32;;;;;;;2.30;2.00;;;21.20;99.90;;;;;;5028613;28;20203;-67
2023/09/09 02:21:59;;;;;;;1.95;1.85;;;21.20;99.90;;;;;;5033766;28;20187;-67
2023/09/09 02:24:26;;;;;;;2.20;2.00;;;21.20;99.90;;;;;;5033418;28;20195;-68
2023/09/09 02:26:53;;;;;;;2.10;2.00;;;21.20;99.90;;;;;;5004174;28;20238;-66
2023/09/09 02:29:20;;;;;;;2.35;2.13;;;21.10;99.90;;;;;;5028198;28;20227;-67
2023/09/09 02:31:49;;;;;;;1.75;1.65;;;21.20;99.90;;;;;;5033832;28;20195;-67
2023/09/09 02:34:16;;;;;;;2.90;2.15;;;21.20;99.90;;;;;;4998932;28;20288;-66
2023/09/09 02:36:45;;;;;;;2.10;2.00;;;21.20;99.90;;;;;;5015974;28;20230;-67
2023/09/09 02:39:12;;;;;;;2.10;2.00;;;21.10;99.90;;;;;;5017091;28;20249;-67
2023/09/09 02:41:39;;;;;;;2.38;2.17;;;21.10;99.90;;;;;;5013230;28;20279;-66
2023/09/09 02:44:07;;;;;;;2.20;2.10;;;21.00;99.90;;;;;;5008309;28;20285;-67
2023/09/09 02:46:34;;;;;;;2.08;1.98;;;21.10;99.90;;;;;;5009599;28;20248;-67
2023/09/09 02:49:02;;;;;;;1.95;1.77;;;21.00;99.90;;;;;;5015023;28;20567;-67
2023/09/09 02:51:29;;;;;;;1.90;1.80;;;21.00;99.90;;;;;;5002468;28;20291;-66
2023/09/09 02:53:57;;;;;;;4.38;2.40;;;21.10;99.90;;;;;;5022062;28;20199;-66
2023/09/09 02:56:24;;;;;;;1.90;1.80;;;21.00;99.90;;;;;;5014842;28;20222;-67
2023/09/09 02:58:52;;;;;;;2.03;1.80;;;21.00;99.90;;;;;;5010021;28;20199;-67
2023/09/09 03:01:19;;;;;;;2.35;2.17;;;20.90;99.90;;;;;;5019654;28;20248;-67
2023/09/09 03:03:46;;;;;;;2.42;2.25;;;20.90;99.90;;;;;;5029829;28;20201;-66
2023/09/09 03:06:15;;;;;;;2.05;1.95;;;20.90;99.90;;;;;;5022746;28;20606;-67
2023/09/09 03:08:42;;;;;;;1.98;1.83;;;20.80;99.90;;;;;;5014154;28;20193;-67
2023/09/09 03:11:09;;;;;;;2.08;1.90;;;20.80;99.90;;;;;;5010926;28;20206;-67
2023/09/09 03:13:36;;;;;;;1.80;1.70;;;20.80;99.90;;;;;;5009669;28;20207;-67
2023/09/09 03:16:05;;;;;;;2.70;2.00;;;20.70;99.90;;;;;;5014268;28;20297;-67
2023/09/09 03:18:32;;;;;;;2.13;1.98;;;20.70;99.90;;;;;;5024652;28;20274;-67
2023/09/09 03:20:59;;;;;;;2.15;2.05;;;20.70;99.90;;;;;;5026052;28;20603;-67
2023/09/09 03:23:27;;;;;;;2.30;2.20;;;20.70;99.90;;;;;;5029465;28;20710;-67
2023/09/09 03:25:54;;;;;;;2.28;1.95;;;20.70;99.90;;;;;;5025773;28;20202;-66
2023/09/09 03:28:21;;;;;;;1.95;1.85;;;20.70;99.90;;;;;;5000922;28;20206;-66
2023/09/09 03:30:56;;;;;;;2.42;2.33;;;20.60;99.90;;;;;;5026983;28;20288;-66
2023/09/09 03:33:27;;;;;;;1.85;1.75;;;20.60;99.90;;;;;;4999390;28;20619;-66
2023/09/09 03:35:54;;;;;;;1.92;1.80;;;20.60;99.90;;;;;;5027715;28;20330;-66
2023/09/09 03:38:22;;;;;;;2.00;1.90;;;20.60;99.90;;;;;;5014750;28;20210;-67
2023/09/09 03:40:50;;;;;;;2.30;2.20;;;20.70;99.90;;;;;;5011006;28;20206;-66
2023/09/09 03:43:17;;;;;;;1.90;1.80;;;20.60;99.90;;;;;;5019974;28;20200;-66
2023/09/09 03:45:45;;;;;;;2.00;1.90;;;20.60;99.90;;;;;;5026627;28;20257;-67
2023/09/09 03:48:12;;;;;;;2.75;2.00;;;20.60;99.90;;;;;;5012950;28;20757;-66
2023/09/09 03:50:39;;;;;;;3.03;2.30;;;20.70;99.90;;;;;;5006965;28;20652;-67
2023/09/09 03:53:07;;;;;;;2.03;1.90;;;20.70;99.90;;;;;;5005695;28;20233;-67
2023/09/09 03:55:34;;;;;;;2.85;2.28;;;20.70;99.90;;;;;;5011482;28;20219;-67
2023/09/09 03:58:03;;;;;;;3.03;2.20;;;20.70;99.90;;;;;;5023780;28;20278;-66
2023/09/09 04:00:31;;;;;;;2.47;2.28;;;20.60;99.90;;;;;;5004162;28;20230;-67
2023/09/09 04:02:58;;;;;;;3.13;2.10;;;20.60;99.90;;;;;;5029181;28;20202;-67
2023/09/09 04:05:25;;;;;;;3.38;2.90;;;20.60;99.90;;;;;;5001234;28;20585;-67
2023/09/09 04:07:52;;;;;;;4.65;4.25;;;20.60;99.90;;;;;;5030419;28;20195;-67
2023/09/09 04:10:21;;;;;;;4.90;4.50;;;20.60;99.90;;;;;;5007912;28;20203;-67
2023/09/09 04:12:48;;;;;;;4.88;4.47;;;20.50;99.90;;;;;;5014041;28;20218;-67
2023/09/09 04:15:17;;;;;;;5.43;4.93;;;20.50;99.90;;;;;;5009446;28;20241;-67
2023/09/09 04:17:44;;;;;;;6.90;5.22;;;20.50;99.90;;;;;;5024881;28;20202;-67
2023/09/09 04:20:11;;;;;;;6.38;5.00;;;20.50;99.90;;;;;;5021064;28;20195;-68
2023/09/09 04:22:40;;;;;;;9.55;6.07;;;20.50;99.90;;;;;;5011315;28;20219;-67
2023/09/09 04:25:08;;;;;;;8.52;5.75;;;20.50;99.90;;;;;;5005216;28;20788;-67
2023/09/09 04:27:36;;;;;;;9.02;6.20;;;20.50;99.90;;;;;;4997699;28;20607;-67
2023/09/09 04:30:03;;;;;;;13.27;6.10;;;20.50;99.90;;;;;;5006695;28;20285;-67
2023/09/09 04:32:34;;;;;;;11.45;5.38;;;20.50;99.90;;;;;;5012603;28;20231;-67
2023/09/09 04:35:03;;;;;;;8.68;4.80;;;20.50;99.90;;;;;;5006264;28;20208;-66
2023/09/09 04:37:32;;;;;;;8.07;4.13;;;20.50;99.90;;;;;;5023243;28;20222;-66
2023/09/09 04:39:59;;;;;;;7.10;4.15;;;20.50;99.90;;;;;;5009160;28;20200;-66
2023/09/09 04:42:27;;;;;;;3.40;3.10;;;20.50;99.90;;;;;;5027615;28;20205;-66
2023/09/09 04:44:54;;;;;;;3.47;2.90;;;20.50;99.90;;;;;;5011310;28;20202;-66
2023/09/09 04:47:21;;;;;;;2.85;2.63;;;20.50;99.90;;;;;;5010505;28;20229;-66
2023/09/09 04:49:50;;;;;;;3.90;2.90;;;20.50;99.90;;;;;;5028813;28;20268;-66
2023/09/09 04:52:17;;;;;;;2.70;2.50;;;20.50;99.90;;;;;;5005400;28;20298;-67
2023/09/09 04:54:44;;;;;;;2.40;2.15;;;20.50;99.90;;;;;;4995327;28;20206;-67
2023/09/09 04:57:12;;;;;;;2.20;2.10;;;20.50;99.90;;;;;;5016971;28;20771;-67
2023/09/09 04:59:39;;;;;;;1.95;1.85;;;20.50;99.90;;;;;;5013083;28;20204;-66
2023/09/09 05:02:06;;;;;;;1.80;1.70;;;20.50;99.90;;;;;;4991667;28;20209;-67
2023/09/09 05:04:33;;;;;;;2.08;1.98;;;20.50;99.90;;;;;;5012176;28;20210;-67
2023/09/09 05:07:03;;;;;;;1.88;1.75;;;20.50;99.90;;;;;;4999873;28;20230;-67
2023/09/09 05:09:30;;;;;;;1.80;1.70;;;20.60;99.90;;;;;;4994652;28;20298;-67
2023/09/09 05:11:57;;;;;;;2.50;1.98;;;20.60;99.90;;;;;;5022894;28;20296;-67
2023/09/09 05:14:24;;;;;;;2.60;2.15;;;20.50;99.90;;;;;;5013170;28;20210;-67
2023/09/09 05:16:51;;;;;;;2.08;1.88;;;20.50;99.90;;;;;;5011708;28;20214;-67
2023/09/09 05:19:19;;;;;;;2.15;1.95;;;20.50;99.90;;;;;;5012058;28;20210;-66
2023/09/09 05:21:47;;;;;;;1.95;1.85;;;20.50;99.90;;;;;;5004037;28;20210;-66
2023/09/09 05:24:16;;;;;;;2.38;2.17;;;20.50;99.90;;;;;;5030323;28;20209;-67
2023/09/09 05:26:43;;;;;;;2.30;2.10;;;20.50;99.90;;;;;;5017635;28;20196;-66
2023/09/09 05:29:10;;;;;;;2.10;2.00;;;20.40;99.90;;;;;;5024193;28;20198;-66
2023/09/09 05:31:37;;;;;;;1.70;1.60;;;20.40;99.90;;;;;;5023315;28;20677;-66
2023/09/09 05:34:04;;;;;;;2.72;2.10;;;20.50;99.90;;;;;;5006159;28;20207;-66
2023/09/09 05:36:31;;;;;;;3.50;2.05;;;20.40;99.90;;;;;;5007456;28;20260;-66
2023/09/09 05:38:59;;;;;;;2.17;2.08;;;20.40;99.90;;;;;;5009672;28;20319;-66
2023/09/09 05:41:29;;;;;;;2.22;2.10;;;20.50;99.90;;;;;;5009349;28;20265;-66
2023/09/09 05:43:57;;;;;;;2.10;1.92;;;20.50;99.90;;;;;;5011827;28;20241;-67
2023/09/09 05:46:25;;;;;;;2.15;2.00;;;20.50;99.90;;;;;;5003458;28;20195;-66
2023/09/09 05:48:52;;;;;;;2.50;2.30;;;20.50;99.90;;;;;;4992753;28;20578;-66
2023/09/09 05:51:19;;;;;;;2.35;1.70;;;20.50;99.90;;;;;;5002808;28;20206;-66
2023/09/09 05:53:48;;;;;;;2.33;2.00;;;20.60;99.90;;;;;;4989631;28;20229;-66
2023/09/09 05:56:15;;;;;;;2.00;1.90;;;20.60;99.90;;;;;;4993039;28;20310;-67
2023/09/09 05:58:43;;;;;;;2.30;2.10;;;20.60;99.90;;;;;;5014472;28;20201;-66
2023/09/09 06:01:11;;;;;;;2.38;2.25;;;20.70;99.90;;;;;;5005254;28;20199;-66
2023/09/09 06:03:39;;;;;;;2.53;2.33;;;20.70;99.90;;;;;;4997951;28;20213;-66
2023/09/09 06:06:07;;;;;;;2.25;2.05;;;20.70;99.90;;;;;;5001171;28;20490;-67
2023/09/09 06:08:34;;;;;;;2.65;2.50;;;20.80;99.90;;;;;;5028245;28;20206;-67
2023/09/09 06:11:01;;;;;;;3.08;2.80;;;20.80;99.90;;;;;;5001319;28;20283;-66
2023/09/09 06:13:30;;;;;;;2.80;2.60;;;20.80;99.90;;;;;;4997912;28;20232;-67
2023/09/09 06:15:58;;;;;;;3.30;2.67;;;20.90;99.90;;;;;;5000111;28;20287;-67
2023/09/09 06:18:25;;;;;;;4.20;2.30;;;20.90;99.90;;;;;;5006108;28;20223;-67
2023/09/09 06:20:53;;;;;;;2.15;2.05;;;20.90;99.90;;;;;;4991371;28;20213;-67
2023/09/09 06:23:21;;;;;;;2.40;2.30;;;21.00;99.90;;;;;;5028355;28;20290;-68
2023/09/09 06:25:50;;;;;;;2.58;2.38;;;21.00;99.90;;;;;;5009951;28;20217;-67
2023/09/09 06:28:18;;;;;;;2.15;2.05;;;21.00;99.90;;;;;;5008378;28;20196;-67
2023/09/09 06:30:45;;;;;;;1.80;1.73;;;21.10;99.90;;;;;;5022756;28;20285;-67
2023/09/09 06:33:14;;;;;;;1.70;1.60;;;21.10;99.90;;;;;;4990894;28;20594;-67
2023/09/09 06:35:48;;;;;;;1.63;1.52;;;21.20;99.90;;;;;;5006720;28;20214;-67
2023/09/09 06:38:16;;;;;;;1.75;1.65;;;21.20;99.90;;;;;;5007008;28;20619;-67
2023/09/09 06:40:45;;;;;;;2.20;2.00;;;21.30;99.90;;;;;;5028286;28;20198;-67
2023/09/09 06:43:14;;;;;;;1.80;1.70;;;21.30;99.90;;;;;;5019115;28;20206;-67
2023/09/09 06:45:41;;;;;;;1.98;1.88;;;21.40;99.90;;;;;;5029962;28;20195;-66
2023/09/09 06:48:08;;;;;;;2.67;2.22;;;21.40;99.90;;;;;;5019178;28;20209;-66
2023/09/09 06:50:36;;;;;;;1.83;1.73;;;21.50;99.90;;;;;;5024436;28;20211;-67
2023/09/09 06:53:04;;;;;;;2.08;1.98;;;21.50;99.90;;;;;;5005839;28;20290;-67
2023/09/09 06:55:31;;;;;;;2.20;2.10;;;21.50;99.90;;;;;;5023634;28;20627;-67
2023/09/09 06:58:00;;;;;;;2.05;1.95;;;21.50;99.90;;;;;;5018642;28;20230;-67
2023/09/09 07:00:27;;;;;;;3.20;1.80;;;21.60;99.90;;;;;;5022180;28;20274;-67
2023/09/09 07:02:54;;;;;;;2.20;2.00;;;21.60;99.90;;;;;;5024041;28;20347;-67
2023/09/09 07:05:22;;;;;;;2.03;1.70;;;21.70;99.90;;;;;;5008910;28;20265;-67
2023/09/09 07:07:50;;;;;;;1.83;1.73;;;21.70;99.90;;;;;;5022648;28;20195;-67
2023/09/09 07:10:17;;;;;;;2.13;2.03;;;21.70;99.90;;;;;;5032898;28;20190;-67
2023/09/09 07:12:44;;;;;;;2.13;1.80;;;21.80;99.90;;;;;;5025834;28;20206;-67
2023/09/09 07:15:11;;;;;;;2.35;2.25;;;21.90;99.90;;;;;;5018669;28;20187;-67
2023/09/09 07:17:38;;;;;;;2.53;2.30;;;22.00;99.90;;;;;;5016516;28;20211;-67
2023/09/09 07:20:07;;;;;;;3.10;2.90;;;22.00;99.90;;;;;;5012124;28;20266;-67
2023/09/09 07:22:34;;;;;;;3.00;2.80;;;22.10;99.90;;;;;;5012385;28;20266;-67
2023/09/09 07:25:04;;;;;;;2.40;2.30;;;22.20;99.90;;;;;;5013104;28;20253;-67
2023/09/09 07:27:31;;;;;;;2.50;2.30;;;22.20;99.90;;;;;;5011740;28;20187;-67
2023/09/09 07:29:58;;;;;;;2.40;2.30;;;22.30;99.90;;;;;;5011167;28;20227;-67
2023/09/09 07:32:25;;;;;;;4.55;2.30;;;22.30;99.90;;;;;;5010503;28;20612;-67
2023/09/09 07:34:52;;;;;;;2.67;2.45;;;22.40;99.90;;;;;;5016013;28;20215;-67
2023/09/09 07:37:20;;;;;;;2.35;2.25;;;22.40;99.90;;;;;;5022968;28;20540;-67
2023/09/09 07:39:47;;;;;;;2.47;2.38;;;22.50;99.90;;;;;;5020510;28;20198;-67
2023/09/09 07:42:16;;;;;;;2.50;2.40;;;22.50;99.90;;;;;;5005469;28;20199;-67
2023/09/09 07:44:44;;;;;;;2.95;2.75;;;22.60;99.90;;;;;;4998156;28;20234;-67
2023/09/09 07:47:11;;;;;;;3.63;2.53;;;22.70;99.90;;;;;;5005847;28;20192;-67
2023/09/09 07:49:38;;;;;;;3.67;3.38;;;22.70;99.90;;;;;;5011899;28;20564;-67
2023/09/09 07:52:06;;;;;;;3.63;3.33;;;22.80;99.90;;;;;;5004117;28;20199;-67
2023/09/09 07:54:34;;;;;;;3.30;3.00;;;22.80;99.90;;;;;;5011196;28;20198;-67
2023/09/09 07:57:01;;;;;;;2.10;2.00;;;22.90;99.90;;;;;;5005379;28;20242;-65
2023/09/09 07:59:30;;;;;;;2.38;2.28;;;23.00;99.90;;;;;;5008927;28;20679;-66
2023/09/09 08:01:57;;;;;;;2.70;2.50;;;23.00;99.90;;;;;;5011751;28;20191;-66
2023/09/09 08:04:24;;;;;;;2.40;2.30;;;23.10;99.90;;;;;;5011120;28;20195;-66
2023/09/09 08:06:53;;;;;;;2.80;2.58;;;23.10;99.90;;;;;;5009541;28;20227;-66
2023/09/09 08:09:21;;;;;;;3.45;3.15;;;23.20;99.90;;;;;;5020904;28;20200;-66
2023/09/09 08:11:48;;;;;;;3.10;2.78;;;23.20;99.90;;;;;;5026222;28;20199;-66
2023/09/09 08:14:16;;;;;;;2.30;2.20;;;23.20;99.90;;;;;;5020880;28;20207;-66
2023/09/09 08:16:45;;;;;;;1.88;1.77;;;23.30;99.90;;;;;;5017961;28;20272;-67
2023/09/09 08:19:12;;;;;;;2.10;2.00;;;23.30;99.90;;;;;;5012731;28;20222;-67
2023/09/09 08:21:39;;;;;;;2.20;2.10;;;23.40;99.90;;;;;;5012079;28;20218;-67
2023/09/09 08:24:06;;;;;;;2.47;2.28;;;23.40;99.90;;;;;;5011577;28;20572;-67
2023/09/09 08:26:34;;;;;;;4.43;2.03;;;23.50;99.90;;;;;;5010835;28;20215;-66
2023/09/09 08:29:01;;;;;;;1.80;1.70;;;23.60;99.90;;;;;;4994206;28;20682;-66
2023/09/09 08:31:28;;;;;;;2.05;1.95;;;23.60;99.90;;;;;;5011797;28;20559;-66
2023/09/09 08:33:56;;;;;;;1.80;1.70;;;23.70;99.90;;;;;;5009283;28;20203;-66
2023/09/09 08:36:23;;;;;;;1.85;1.75;;;23.80;99.90;;;;;;5013593;28;20191;-65
2023/09/09 08:38:56;;;;;;;2.03;1.92;;;23.80;99.90;;;;;;5011689;28;20560;-66
2023/09/09 08:41:33;;;;;;;1.70;1.60;;;23.80;99.90;;;;;;5011934;28;20210;-66
2023/09/09 08:44:08;;;;;;;5.97;2.53;;;23.90;99.90;;;;;;4990160;28;20260;-65
2023/09/09 08:46:35;;;;;;;3.05;2.75;;;24.00;99.90;;;;;;5015501;28;20206;-66
2023/09/09 08:49:05;;;;;;;3.22;2.50;;;24.00;99.90;;;;;;5015667;28;20257;-67
2023/09/09 08:51:35;;;;;;;2.80;2.60;;;24.10;99.90;;;;;;5014872;28;20191;-66
2023/09/09 08:54:03;;;;;;;2.80;2.60;;;24.10;99.90;;;;;;5007055;28;20210;-66
2023/09/09 08:56:31;;;;;;;2.28;2.17;;;24.20;99.90;;;;;;5011513;28;20207;-66
2023/09/09 08:58:58;;;;;;;2.70;2.50;;;24.20;99.90;;;;;;5011382;28;20816;-67
2023/09/09 09:01:27;;;;;;;2.13;2.03;;;24.30;99.90;;;;;;5009126;28;20211;-67
2023/09/09 09:03:55;;;;;;;2.67;2.28;;;24.40;99.90;;;;;;5009754;28;20353;-66
2023/09/09 09:06:24;;;;;;;2.50;2.30;;;24.50;99.90;;;;;;5010387;28;20654;-66
2023/09/09 09:08:51;;;;;;;2.28;2.10;;;24.50;99.90;;;;;;5011135;28;20241;-66
2023/09/09 09:11:21;;;;;;;2.75;2.55;;;24.60;99.90;;;;;;5010552;28;20687;-66
2023/09/09 09:13:50;;;;;;;2.78;2.58;;;24.70;99.90;;;;;;5004679;28;20233;-66
2023/09/09 09:16:18;;;;;;;2.58;2.47;;;24.70;99.90;;;;;;5016926;28;20195;-65
2023/09/09 09:18:45;;;;;;;2.80;2.60;;;24.80;99.90;;;;;;4993357;28;20314;-66
2023/09/09 09:21:12;;;;;;;2.30;2.10;;;24.80;99.90;;;;;;5011316;28;20195;-66
2023/09/09 09:23:44;;;;;;;3.58;3.20;;;24.90;99.90;;;;;;5009910;28;20203;-66
2023/09/09 09:26:25;;;;;;;3.28;3.03;;;25.00;99.90;;;;;;5010970;28;20196;-66
2023/09/09 09:28:52;;;;;;;2.90;2.70;;;25.00;99.90;;;;;;5010601;28;20221;-66
2023/09/09 09:31:20;;;;;;;3.25;2.95;;;25.10;99.90;;;;;;5010976;28;20211;-65
2023/09/09 09:33:48;;;;;;;4.40;3.58;;;25.10;99.90;;;;;;4991537;28;20203;-68
2023/09/09 09:36:17;;;;;;;3.53;3.10;;;25.20;99.90;;;;;;4992793;28;20195;-67
2023/09/09 09:38:45;;;;;;;2.92;2.60;;;25.20;99.90;;;;;;5010643;28;20579;-66
2023/09/09 09:41:13;;;;;;;3.45;3.15;;;25.30;99.90;;;;;;5010790;28;20230;-66
2023/09/09 09:43:40;;;;;;;3.17;2.97;;;25.40;99.90;;;;;;5010615;28;20206;-66
2023/09/09 09:46:14;;;;;;;3.30;3.00;;;25.40;99.90;;;;;;5010585;28;20230;-66
2023/09/09 09:48:41;;;;;;;4.93;3.20;;;25.40;99.90;;;;;;5009216;28;20333;-66
2023/09/09 09:51:09;;;;;;;3.72;3.10;;;25.50;99.90;;;;;;5010227;28;20663;-66
2023/09/09 09:53:39;;;;;;;3.22;3.03;;;25.50;99.90;;;;;;5009883;28;20202;-67
2023/09/09 09:56:09;;;;;;;2.97;2.78;;;25.50;99.90;;;;;;5011088;28;20229;-66
2023/09/09 09:58:38;;;;;;;2.60;2.40;;;25.60;99.90;;;;;;5010244;28;20304;-66
2023/09/09 10:01:07;;;;;;;3.45;2.83;;;25.60;99.90;;;;;;4992532;28;20191;-65
2023/09/09 10:03:41;;;;;;;3.50;3.05;;;25.70;99.90;;;;;;5012901;28;20244;-66
2023/09/09 10:06:12;;;;;;;3.40;2.90;;;25.80;99.90;;;;;;5012300;28;20230;-66
2023/09/09 10:08:42;;;;;;;3.05;2.83;;;25.80;99.90;;;;;;4997988;28;20562;-66
2023/09/09 10:11:16;;;;;;;3.47;3.25;;;25.90;99.90;;;;;;5018469;28;20562;-67
2023/09/09 10:13:54;;;;;;;3.28;2.97;;;26.00;99.90;;;;;;5008113;28;20196;-66
2023/09/09 10:16:22;;;;;;;3.55;3.05;;;26.00;99.90;;;;;;5016893;28;20198;-68
2023/09/09 10:18:52;;;;;;;3.30;3.10;;;26.10;99.90;;;;;;5023759;28;20211;-68
2023/09/09 10:21:21;;;;;;;3.10;2.90;;;26.20;99.90;;;;;;5026129;28;20203;-66
2023/09/09 10:23:49;;;;;;;2.92;2.70;;;26.30;99.90;;;;;;5006897;28;20290;-67
2023/09/09 10:26:18;;;;;;;2.60;2.50;;;26.40;99.90;;;;;;5019846;28;20282;-67
2023/09/09 10:28:47;;;;;;;2.95;2.75;;;26.50;99.90;;;;;;5018075;28;20175;-67
2023/09/09 10:31:15;;;;;;;2.92;2.72;;;26.60;99.90;;;;;;5021040;28;20194;-66
2023/09/09 10:33:45;;;;;;;3.17;2.80;;;26.70;99.90;;;;;;5013327;28;20199;-67
2023/09/09 10:36:15;;;;;;;3.10;2.90;;;26.80;99.90;;;;;;4995695;28;20218;-66
2023/09/09 10:38:42;;;;;;;3.13;2.80;;;26.80;99.90;;;;;;5022260;28;20211;-66
2023/09/09 10:41:10;;;;;;;3.00;2.80;;;26.80;99.90;;;;;;5026875;28;20534;-66
2023/09/09 10:43:39;;;;;;;3.83;3.53;;;26.90;99.70;;;;;;5024297;28;20209;-67
2023/09/09 10:46:09;;;;;;;5.70;2.97;;;26.90;99.30;;;;;;5028555;28;20600;-66
2023/09/09 10:48:36;;;;;;;3.42;3.22;;;27.00;99.30;;;;;;5025484;28;20202;-66
2023/09/09 10:51:06;;;;;;;2.85;2.65;;;27.00;99.10;;;;;;5017852;28;20207;-66
2023/09/09 10:53:34;;;;;;;3.28;2.67;;;27.10;99.00;;;;;;5021641;28;20196;-66
2023/09/09 10:56:23;;;;;;;3.40;3.10;;;27.10;98.90;;;;;;5010030;28;20249;-66
2023/09/09 10:58:52;;;;;;;3.20;3.00;;;27.20;98.70;;;;;;5012875;28;20203;-67
2023/09/09 11:01:27;;;;;;;3.28;3.08;;;27.20;98.50;;;;;;5014089;28;20705;-67
2023/09/09 11:03:54;;;;;;;3.50;3.20;;;27.30;98.60;;;;;;5002544;28;20205;-67
2023/09/09 11:06:24;;;;;;;4.05;3.15;;;27.30;98.40;;;;;;5015262;28;20313;-67
2023/09/09 11:08:55;;;;;;;3.10;2.90;;;27.30;98.30;;;;;;5004792;28;20410;-66
2023/09/09 11:11:26;;;;;;;3.38;3.00;;;27.30;98.30;;;;;;5022386;28;20215;-67
2023/09/09 11:14:02;;;;;;;2.75;2.55;;;27.30;98.30;;;;;;5012444;28;20200;-67
2023/09/09 11:16:31;;;;;;;3.97;3.67;;;27.40;98.00;;;;;;5019979;28;20658;-67
2023/09/09 11:19:01;;;;;;;3.35;3.15;;;27.40;97.40;;;;;;5014800;28;20302;-67
2023/09/09 11:21:30;;;;;;;2.60;2.50;;;27.40;97.30;;;;;;5020829;28;20229;-66
2023/09/09 11:23:57;;;;;;;3.30;3.00;;;27.50;97.40;;;;;;5017638;28;20203;-66
2023/09/09 11:26:25;;;;;;;2.83;2.63;;;27.50;97.40;;;;;;5023816;28;20229;-67
2023/09/09 11:28:55;;;;;;;2.70;2.50;;;27.60;97.40;;;;;;5019460;28;20195;-67
2023/09/09 11:31:23;;;;;;;8.75;3.35;;;27.60;97.50;;;;;;5020677;28;20202;-67
2023/09/09 11:33:51;;;;;;;4.00;3.08;;;27.60;97.20;;;;;;5015347;28;20324;-67
2023/09/09 11:36:18;;;;;;;4.32;3.40;;;27.60;96.90;;;;;;5024063;28;20202;-66
2023/09/09 11:38:46;;;;;;;3.13;2.92;;;27.60;97.10;;;;;;5020165;28;20239;-67
2023/09/09 11:41:21;;;;;;;2.58;2.45;;;27.70;96.80;;;;;;5025279;28;20199;-67
2023/09/09 11:44:01;;;;;;;2.72;2.53;;;27.70;96.80;;;;;;5022000;28;20202;-66
2023/09/09 11:46:31;;;;;;;3.50;3.20;;;27.80;96.80;;;;;;5022519;28;20628;-67
2023/09/09 11:48:59;;;;;;;3.20;2.97;;;27.90;96.60;;;;;;5005593;28;20206;-67
2023/09/09 11:51:27;;;;;;;3.50;3.30;;;27.80;96.60;;;;;;5019010;28;20249;-66
2023/09/09 11:53:54;;;;;;;3.78;3.47;;;27.90;96.50;;;;;;5017207;28;20204;-67
2023/09/09 11:56:21;;;;;;;4.30;3.90;;;27.90;96.40;;;;;;4986519;28;20207;-66
2023/09/09 11:58:49;;;;;;;3.58;3.38;;;27.90;96.10;;;;;;5012232;28;20207;-66
2023/09/09 12:01:19;;;;;;;3.90;3.30;;;27.90;96.10;;;;;;5007158;28;20567;-67
2023/09/09 12:03:48;;;;;;;3.83;3.42;;;27.90;96.10;;;;;;5009333;28;20242;-67
2023/09/09 12:06:17;;;;;;;3.35;3.08;;;27.90;96.00;;;;;;5011367;28;20391;-67
2023/09/09 12:08:44;;;;;;;4.47;3.30;;;27.90;96.00;;;;;;5006940;28;20278;-67
2023/09/09 12:11:14;;;;;;;3.28;3.08;;;28.00;95.80;;;;;;5011487;28;20192;-66
2023/09/09 12:13:41;;;;;;;3.63;3.33;;;28.00;95.80;;;;;;5006810;28;20253;-66
2023/09/09 12:16:10;;;;;;;3.20;2.95;;;28.00;95.60;;;;;;5009324;28;20533;-66
2023/09/09 12:18:38;;;;;;;3.80;3.50;;;28.10;95.60;;;;;;5011080;28;20215;-66
2023/09/09 12:21:08;;;;;;;6.03;3.38;;;28.10;95.50;;;;;;5011779;28;20267;-66
2023/09/09 12:23:37;;;;;;;3.03;2.83;;;28.10;95.30;;;;;;5011906;28;20203;-65
2023/09/09 12:26:11;;;;;;;2.97;2.78;;;28.10;95.30;;;;;;5011715;28;20200;-65
2023/09/09 12:28:38;;;;;;;2.70;2.50;;;28.10;95.30;;;;;;5012138;28;20242;-65
2023/09/09 12:31:05;;;;;;;2.88;2.67;;;28.20;95.20;;;;;;4994299;28;20270;-66
2023/09/09 12:33:45;;;;;;;2.70;2.60;;;28.30;95.00;;;;;;5010184;28;20258;-65
2023/09/09 12:36:17;;;;;;;4.00;3.60;;;28.30;94.90;;;;;;4999180;28;20654;-66
2023/09/09 12:38:46;;;;;;;3.10;2.90;;;28.40;94.50;;;;;;5009511;28;20208;-66
2023/09/09 12:41:18;;;;;;;2.80;2.60;;;28.40;94.60;;;;;;5011832;28;20610;-66
2023/09/09 12:43:45;;;;;;;3.40;3.20;;;28.40;94.60;;;;;;5010871;28;20540;-66
2023/09/09 12:46:14;;;;;;;2.90;2.70;;;28.40;94.50;;;;;;5011128;28;20215;-66
2023/09/09 12:48:54;;;;;;;3.50;3.20;;;28.40;94.50;;;;;;5010399;28;20192;-66
2023/09/09 12:51:21;;;;;;;5.85;3.42;;;28.50;94.20;;;;;;5011422;28;20647;-66
2023/09/09 12:53:48;;;;;;;2.92;2.72;;;28.60;93.50;;;;;;5007823;28;20195;-67